Time;durP1;ratioP1;P1;durP2;ratioP2;P2;SDS_P1;SDS_P2;PMS_P1;PMS_P2;Temp;Humidity;BMP_temperature;BMP_pressure;BME280_temperature;BME280_humidity;BME280_pressure;Samples;Min_cycle;Max_cycle;Signal;HPM_P1;HPM_P2
2023/08/18 00:00:07;;;;;;;7.15;2.70;;;;;;;13.96;100.00;93177.13;2098470;28;20369;-84
2023/08/18 00:01:11;;;;;;;8.52;3.10;;;;;;;13.97;100.00;93179.41;2106031;28;20024;-85
2023/08/18 00:02:15;;;;;;;5.45;2.95;;;;;;;13.92;100.00;93177.28;2106464;28;20062;-85
2023/08/18 00:03:16;;;;;;;3.30;2.80;;;;;;;13.83;100.00;93180.63;2119448;28;20008;-85
2023/08/18 00:04:17;;;;;;;4.97;3.28;;;;;;;13.84;100.00;93176.00;2113649;28;20038;-84
2023/08/18 00:05:18;;;;;;;5.97;2.70;;;;;;;13.71;100.00;93180.66;2105638;28;20396;-85
2023/08/18 00:06:21;;;;;;;13.18;3.63;;;;;;;13.78;100.00;93177.72;2100831;28;20111;-86
2023/08/18 00:07:22;;;;;;;3.95;3.00;;;;;;;13.76;100.00;93182.78;2093820;28;20017;-85
2023/08/18 00:08:23;;;;;;;3.55;2.90;;;;;;;13.77;100.00;93176.97;2085192;28;20477;-86
2023/08/18 00:09:24;;;;;;;2.78;2.58;;;;;;;13.74;100.00;93171.72;2097830;28;20025;-85
2023/08/18 00:10:27;;;;;;;5.28;2.78;;;;;;;13.58;100.00;93169.94;2101434;28;20055;-85
2023/08/18 00:11:28;;;;;;;4.25;2.80;;;;;;;13.63;100.00;93176.69;2098204;28;20032;-85
2023/08/18 00:12:32;;;;;;;3.25;2.70;;;;;;;13.70;100.00;93171.09;2095304;28;20029;-84
2023/08/18 00:13:33;;;;;;;3.05;2.75;;;;;;;13.66;100.00;93170.47;2089617;28;20426;-85
2023/08/18 00:14:34;;;;;;;8.00;3.20;;;;;;;13.59;100.00;93172.19;2098532;28;20037;-86
2023/08/18 00:15:35;;;;;;;5.03;3.08;;;;;;;13.59;100.00;93164.13;2097902;28;20016;-85
2023/08/18 00:16:36;;;;;;;4.82;2.75;;;;;;;13.61;100.00;93171.78;2090229;28;20029;-85
2023/08/18 00:17:37;;;;;;;2.95;2.40;;;;;;;13.54;100.00;93169.31;2093590;28;20093;-85
2023/08/18 00:18:38;;;;;;;3.70;2.70;;;;;;;13.55;100.00;93171.56;2098423;28;20106;-84
2023/08/18 00:19:44;;;;;;;8.15;2.70;;;;;;;13.60;100.00;93165.63;2097527;28;20415;-85
2023/08/18 00:20:45;;;;;;;6.20;2.70;;;;;;;13.63;100.00;93165.97;2090879;28;20120;-85
2023/08/18 00:21:46;;;;;;;5.95;2.55;;;;;;;13.59;100.00;93163.38;2098316;28;20024;-85
2023/08/18 00:22:47;;;;;;;6.22;2.80;;;;;;;13.50;100.00;93174.03;2106555;28;20020;-85
2023/08/18 00:23:48;;;;;;;3.88;2.80;;;;;;;13.59;100.00;93166.06;2097491;28;20021;-85
2023/08/18 00:24:49;;;;;;;3.42;2.80;;;;;;;13.54;100.00;93163.94;2101311;28;20048;-86
2023/08/18 00:25:51;;;;;;;5.60;2.78;;;;;;;13.49;100.00;93170.59;2114376;28;20403;-85
2023/08/18 00:26:52;;;;;;;4.30;2.90;;;;;;;13.58;100.00;93165.31;2114097;28;20023;-85
2023/08/18 00:27:54;;;;;;;4.38;2.70;;;;;;;13.59;100.00;93161.44;2097390;28;20121;-84
2023/08/18 00:28:58;;;;;;;7.57;2.90;;;;;;;13.65;100.00;93155.53;2087993;28;20504;-84
2023/08/18 00:30:00;;;;;;;6.00;2.97;;;;;;;13.68;100.00;93152.72;2094802;28;20124;-84
2023/08/18 00:31:00;;;;;;;6.13;3.25;;;;;;;13.69;100.00;93159.59;2097728;28;20405;-84
2023/08/18 00:32:02;;;;;;;7.90;3.13;;;;;;;13.67;100.00;93158.53;2097586;28;20555;-84
2023/08/18 00:33:03;;;;;;;4.38;3.22;;;;;;;13.68;100.00;93158.09;2090121;28;20512;-84
2023/08/18 00:34:04;;;;;;;3.10;2.78;;;;;;;13.63;100.00;93155.22;2094295;28;20025;-85
2023/08/18 00:35:08;;;;;;;5.38;3.00;;;;;;;13.56;100.00;93162.34;2099537;28;20031;-85
2023/08/18 00:36:09;;;;;;;4.88;3.03;;;;;;;13.60;100.00;93157.56;2102964;28;20118;-85
2023/08/18 00:37:13;;;;;;;5.22;3.42;;;;;;;13.64;100.00;93157.47;2097533;28;20024;-84
2023/08/18 00:38:14;;;;;;;3.65;3.08;;;;;;;13.60;100.00;93167.56;2098080;28;20214;-85
2023/08/18 00:39:15;;;;;;;7.78;3.38;;;;;;;13.56;100.00;93156.97;2089114;28;20041;-85
2023/08/18 00:40:23;;;;;;;10.45;2.90;;;;;;;13.41;100.00;93153.22;2086558;28;20028;-85
2023/08/18 00:41:25;;;;;;;3.33;2.90;;;;;;;13.45;100.00;93161.91;2089846;28;20066;-84
2023/08/18 00:42:25;;;;;;;3.28;2.78;;;;;;;13.53;100.00;93162.44;2099676;28;20037;-85
2023/08/18 00:43:26;;;;;;;6.45;2.58;;;;;;;13.55;100.00;93158.13;2103675;28;20151;-86
2023/08/18 00:44:27;;;;;;;3.53;2.83;;;;;;;13.41;100.00;93160.53;2099160;28;20031;-84
2023/08/18 00:45:28;;;;;;;3.05;2.85;;;;;;;13.48;100.00;93160.31;2096979;28;20024;-85
2023/08/18 00:46:31;;;;;;;3.20;2.67;;;;;;;13.52;100.00;93155.53;2105407;28;20516;-85
2023/08/18 00:47:32;;;;;;;5.25;2.88;;;;;;;13.48;100.00;93155.69;2105661;28;20114;-85
2023/08/18 00:48:39;;;;;;;6.93;2.67;;;;;;;13.40;100.00;93153.66;2106047;28;20427;-84
2023/08/18 00:49:40;;;;;;;5.18;3.05;;;;;;;13.39;100.00;93158.28;2110088;28;20030;-84
2023/08/18 00:50:42;;;;;;;4.05;2.78;;;;;;;13.36;100.00;93161.81;2105024;28;20054;-85
2023/08/18 00:51:47;;;;;;;7.70;2.55;;;;;;;13.38;100.00;93158.69;2109700;28;20032;-85
2023/08/18 00:53:04;;;;;;;4.95;2.78;;;;;;;13.33;100.00;93154.63;2098318;28;20043;-85
2023/08/18 00:54:07;;;;;;;3.65;2.60;;;;;;;13.29;100.00;93152.03;2102240;28;20028;-84
2023/08/18 00:55:11;;;;;;;3.03;2.70;;;;;;;13.40;100.00;93157.09;2089818;28;20017;-85
2023/08/18 00:56:15;;;;;;;4.53;3.10;;;;;;;13.41;100.00;93150.53;2098150;28;20065;-84
2023/08/18 00:57:54;;;;;;;4.25;2.65;;;;;;;13.33;100.00;93158.06;2106747;28;20798;-84
2023/08/18 00:58:55;;;;;;;5.80;2.85;;;;;;;13.27;100.00;93153.66;2101945;28;20027;-84
2023/08/18 00:59:57;;;;;;;7.40;2.78;;;;;;;13.29;100.00;93151.28;2097774;28;20032;-84
2023/08/18 01:00:59;;;;;;;8.18;2.97;;;;;;;13.36;100.00;93148.41;2106050;28;20028;-85
2023/08/18 01:02:02;;;;;;;3.10;2.85;;;;;;;13.31;100.00;93152.38;2098842;28;20042;-83
2023/08/18 01:03:06;;;;;;;4.50;3.08;;;;;;;13.29;100.00;93148.59;2106547;28;20500;-85
2023/08/18 01:04:07;;;;;;;5.80;2.70;;;;;;;13.24;100.00;93146.47;2089835;28;20021;-85
2023/08/18 01:05:08;;;;;;;6.47;3.22;;;;;;;13.34;100.00;93145.38;2090131;28;20036;-85
2023/08/18 01:06:09;;;;;;;3.22;2.38;;;;;;;13.27;100.00;93146.38;2088904;28;20052;-85
2023/08/18 01:07:12;;;;;;;3.53;2.90;;;;;;;13.26;100.00;93146.81;2088178;28;20029;-84
2023/08/18 01:08:13;;;;;;;5.82;2.92;;;;;;;13.31;100.00;93144.31;2102163;28;20027;-85
2023/08/18 01:09:16;;;;;;;3.17;2.47;;;;;;;13.28;100.00;93142.50;2098229;28;20032;-86
2023/08/18 01:10:17;;;;;;;4.50;2.50;;;;;;;13.26;100.00;93138.75;2089697;28;20111;-84
2023/08/18 01:11:48;;;;;;;4.95;2.55;;;;;;;13.29;100.00;93135.94;2089589;28;20020;-84
2023/08/18 01:13:35;;;;;;;2.92;2.47;;;;;;;13.09;100.00;93140.78;2097880;28;20047;-86
2023/08/18 01:14:55;;;;;;;2.65;2.30;;;;;;;13.08;100.00;93140.03;2099571;28;20361;-85
2023/08/18 01:16:01;;;;;;;5.28;2.55;;;;;;;13.11;100.00;93133.78;2113811;28;20027;-85
2023/08/18 01:17:17;;;;;;;2.92;2.15;;;;;;;13.11;100.00;93139.16;2107025;28;20032;-84
2023/08/18 01:18:22;;;;;;;4.13;2.10;;;;;;;13.11;100.00;93139.16;2108656;28;20056;-85
2023/08/18 01:19:24;;;;;;;2.78;2.58;;;;;;;13.07;100.00;93133.13;2098040;28;20032;-84
2023/08/18 01:20:26;;;;;;;3.75;1.90;;;;;;;13.12;100.00;93134.53;2089108;28;20643;-84
2023/08/18 01:21:32;;;;;;;4.85;1.83;;;;;;;13.10;100.00;93129.59;2089580;28;20447;-85
2023/08/18 01:22:35;;;;;;;3.80;1.90;;;;;;;13.15;100.00;93128.31;2090789;28;20055;-85
2023/08/18 01:23:40;;;;;;;3.33;2.35;;;;;;;13.10;100.00;93132.28;2097814;28;20062;-83
2023/08/18 01:24:41;;;;;;;2.55;2.35;;;;;;;13.03;100.00;93132.50;2104541;28;20128;-84
2023/08/18 01:25:42;;;;;;;4.40;2.30;;;;;;;13.02;100.00;93131.00;2105182;28;20028;-84
2023/08/18 01:26:43;;;;;;;4.40;2.20;;;;;;;13.07;100.00;93130.47;2097277;28;20354;-85
2023/08/18 01:27:44;;;;;;;5.53;2.10;;;;;;;13.10;100.00;93134.97;2096899;28;20486;-84
2023/08/18 01:28:45;;;;;;;5.75;2.55;;;;;;;13.11;100.00;93133.78;2096640;28;20025;-84
2023/08/18 01:29:46;;;;;;;11.57;2.80;;;;;;;12.93;100.00;93135.53;2106337;28;20024;-84
2023/08/18 01:30:53;;;;;;;6.40;2.42;;;;;;;12.94;100.00;93132.41;2105798;28;20087;-84
2023/08/18 01:32:00;;;;;;;2.35;2.10;;;;;;;12.95;100.00;93128.56;2098773;28;20115;-85
2023/08/18 01:33:49;;;;;;;4.45;2.70;;;;;;;12.98;100.00;93138.41;2091058;28;20142;-85
2023/08/18 01:34:53;;;;;;;2.60;2.25;;;;;;;12.96;100.00;93142.72;2096017;28;20046;-85
2023/08/18 01:36:03;;;;;;;3.00;2.20;;;;;;;12.90;100.00;93145.16;2097695;28;20037;-83
2023/08/18 01:37:06;;;;;;;4.55;2.38;;;;;;;12.82;100.00;93135.84;2090593;28;20051;-84
2023/08/18 01:38:09;;;;;;;5.65;2.30;;;;;;;12.89;100.00;93135.63;2097863;28;20392;-85
2023/08/18 01:39:13;;;;;;;5.97;2.40;;;;;;;12.87;100.00;93139.94;2097989;28;20036;-83
2023/08/18 01:40:16;;;;;;;3.45;2.20;;;;;;;12.89;100.00;93134.88;2098544;28;20028;-84
2023/08/18 01:41:22;;;;;;;5.22;2.38;;;;;;;12.88;100.00;93131.44;2096703;28;20124;-85
2023/08/18 01:42:23;;;;;;;3.00;2.60;;;;;;;12.89;100.00;93135.63;2090258;28;20052;-85
2023/08/18 01:43:24;;;;;;;2.35;2.20;;;;;;;12.90;100.00;93139.06;2093128;28;20024;-84
2023/08/18 01:44:25;;;;;;;4.38;2.35;;;;;;;12.78;100.00;93137.88;2097320;28;20024;-85
2023/08/18 01:45:26;;;;;;;6.95;2.50;;;;;;;12.77;100.00;93144.41;2097809;28;20028;-84
2023/08/18 01:46:27;;;;;;;4.43;2.33;;;;;;;12.87;100.00;93135.31;2089432;28;20094;-83
2023/08/18 01:47:28;;;;;;;6.22;2.83;;;;;;;12.86;100.00;93139.16;2097952;28;20035;-84
2023/08/18 01:48:31;;;;;;;2.47;2.28;;;;;;;12.73;100.00;93141.09;2106312;28;20517;-84
2023/08/18 01:50:13;;;;;;;3.97;2.78;;;;;;;12.78;100.00;93137.88;2097723;28;20024;-83
2023/08/18 01:51:14;;;;;;;4.20;2.78;;;;;;;12.82;100.00;93127.81;2103373;28;20133;-83
2023/08/18 01:52:15;;;;;;;3.58;2.10;;;;;;;12.83;100.00;93124.69;2105211;28;20036;-85
2023/08/18 01:53:16;;;;;;;4.22;2.50;;;;;;;12.85;100.00;93133.03;2104711;28;20033;-84
2023/08/18 01:54:17;;;;;;;6.53;2.53;;;;;;;12.88;100.00;93126.06;2096047;28;20016;-84
2023/08/18 01:55:24;;;;;;;5.75;2.67;;;;;;;12.75;100.00;93123.38;2099187;28;20295;-84
2023/08/18 01:56:25;;;;;;;3.85;2.40;;;;;;;12.74;100.00;93132.63;2099169;28;20069;-84
2023/08/18 01:57:26;;;;;;;4.38;2.55;;;;;;;12.76;100.00;93126.81;2097661;28;20155;-84
2023/08/18 01:58:29;;;;;;;4.80;2.40;;;;;;;12.70;100.00;93123.19;2097887;28;20033;-84
2023/08/18 01:59:30;;;;;;;5.95;2.50;;;;;;;12.74;100.00;93123.81;2091258;28;20483;-84
2023/08/18 02:00:31;;;;;;;3.78;2.50;;;;;;;12.72;100.00;93126.91;2096744;28;20020;-84
2023/08/18 02:01:32;;;;;;;3.58;2.47;;;;;;;12.62;100.00;93121.88;2106382;28;20047;-85
2023/08/18 02:02:34;;;;;;;2.55;2.22;;;;;;;12.62;100.00;93124.56;2105368;28;20032;-84
2023/08/18 02:03:35;;;;;;;2.72;2.42;;;;;;;12.63;100.00;93121.44;2111231;28;20039;-83
2023/08/18 02:04:36;;;;;;;2.83;2.20;;;;;;;12.63;100.00;93120.69;2103197;28;20024;-83
2023/08/18 02:05:39;;;;;;;2.30;2.10;;;;;;;12.66;100.00;93119.84;2089064;28;20090;-85
2023/08/18 02:09:01;;;;;;;4.03;2.28;;;;;;;12.48;100.00;93123.81;2105358;28;20114;-84
2023/08/18 02:10:02;;;;;;;4.13;2.20;;;;;;;12.54;100.00;93122.09;2092105;28;20060;-85
2023/08/18 02:11:04;;;;;;;5.78;2.53;;;;;;;12.56;100.00;93122.41;2088358;28;20346;-85
2023/08/18 02:12:06;;;;;;;2.88;2.55;;;;;;;12.60;100.00;93123.06;2089224;28;20025;-84
2023/08/18 02:13:09;;;;;;;3.55;2.50;;;;;;;12.58;100.00;93128.09;2097896;28;20040;-84
2023/08/18 02:14:10;;;;;;;5.15;2.67;;;;;;;12.57;100.00;93118.56;2114456;28;20028;-83
2023/08/18 02:15:11;;;;;;;4.55;2.40;;;;;;;12.51;100.00;93120.28;2106138;28;20028;-84
2023/08/18 02:16:12;;;;;;;2.70;2.45;;;;;;;12.51;100.00;93122.19;2089507;28;20017;-84
2023/08/18 02:17:29;;;;;;;3.47;2.13;;;;;;;12.48;100.00;93118.44;2097381;28;20063;-83
2023/08/18 02:19:17;;;;;;;3.45;2.40;;;;;;;12.52;100.00;93121.78;2093945;28;20032;-84
2023/08/18 02:22:36;;;;;;;2.40;2.20;;;;;;;12.09;100.00;93117.63;2126678;27;20536;-85
2023/08/18 02:23:37;;;;;;;3.00;2.17;;;;;;;12.11;100.00;93119.84;2121361;28;20042;-85
2023/08/18 02:24:39;;;;;;;3.35;2.22;;;;;;;12.10;100.00;93115.69;2102093;28;20027;-84
2023/08/18 02:25:40;;;;;;;5.38;2.20;;;;;;;11.96;100.00;93119.50;2098800;28;20479;-84
2023/08/18 02:26:41;;;;;;;6.90;2.58;;;;;;;12.05;100.00;93116.94;2110499;28;20051;-86
2023/08/18 02:27:42;;;;;;;3.30;2.10;;;;;;;12.06;100.00;93112.34;2106649;28;20028;-85
2023/08/18 02:28:44;;;;;;;5.75;2.33;;;;;;;11.97;100.00;93112.97;2104813;28;20431;-85
2023/08/18 02:29:45;;;;;;;6.00;2.28;;;;;;;11.99;100.00;93117.91;2104497;28;20461;-85
2023/08/18 02:30:46;;;;;;;3.60;2.53;;;;;;;12.03;100.00;93110.53;2100043;28;20020;-84
2023/08/18 02:33:17;;;;;;;2.58;2.35;;;;;;;12.12;100.00;93113.34;2083309;28;20037;-84
2023/08/18 02:34:19;;;;;;;5.03;2.13;;;;;;;12.12;100.00;93115.28;2086622;28;20030;-85
2023/08/18 02:36:05;;;;;;;2.40;2.20;;;;;;;12.06;100.00;93121.13;2101057;28;20078;-85
2023/08/18 02:37:06;;;;;;;5.13;2.47;;;;;;;11.98;100.00;93119.81;2096151;28;20460;-84
2023/08/18 02:38:22;;;;;;;2.65;2.13;;;;;;;12.04;100.00;93123.50;2096015;28;20021;-87
2023/08/18 02:40:05;;;;;;;4.72;2.70;;;;;;;12.09;100.00;93114.94;2108137;28;20475;-84
2023/08/18 02:41:07;;;;;;;5.00;2.50;;;;;;;12.06;100.00;93115.03;2108701;28;20030;-85
2023/08/18 02:48:02;;;;;;;2.53;2.33;;;;;;;12.16;100.00;93121.25;2104377;28;20035;-85
2023/08/18 02:49:03;;;;;;;4.57;2.63;;;;;;;12.08;100.00;93112.69;2090609;28;20025;-84
2023/08/18 02:50:06;;;;;;;2.92;2.40;;;;;;;11.97;100.00;93109.53;2096185;28;20028;-85
2023/08/18 02:51:08;;;;;;;4.05;2.47;;;;;;;12.00;100.00;93114.81;2102802;28;20500;-85
2023/08/18 02:52:10;;;;;;;4.18;2.70;;;;;;;11.95;100.00;93109.97;2096152;28;20104;-84
2023/08/18 02:53:13;;;;;;;3.83;2.20;;;;;;;12.04;100.00;93110.09;2087868;28;20029;-84
2023/08/18 02:54:21;;;;;;;1.98;1.88;;;;;;;12.07;100.00;93105.81;2092403;28;20082;-85
2023/08/18 02:55:24;;;;;;;3.40;2.03;;;;;;;12.01;100.00;93105.59;2104296;28;20024;-85
2023/08/18 02:56:58;;;;;;;7.40;2.08;;;;;;;12.04;100.00;93104.00;2096440;28;20386;-85
2023/08/18 02:58:00;;;;;;;6.05;1.88;;;;;;;12.06;100.00;93112.34;2100168;28;20805;-86
2023/08/18 02:59:01;;;;;;;2.22;1.77;;;;;;;12.07;100.00;93105.81;2087915;28;20032;-85
2023/08/18 03:00:02;;;;;;;2.92;2.15;;;;;;;11.94;100.00;93113.84;2088000;28;20025;-85
2023/08/18 03:01:05;;;;;;;3.85;2.10;;;;;;;11.91;100.00;93105.88;2095908;28;20111;-85
2023/08/18 03:02:06;;;;;;;3.95;2.38;;;;;;;11.90;100.00;93104.38;2104181;28;20074;-84
2023/08/18 03:03:07;;;;;;;5.18;2.20;;;;;;;11.82;100.00;93104.56;2110256;28;20023;-86
2023/08/18 03:04:08;;;;;;;2.40;2.05;;;;;;;11.78;100.00;93105.81;2100337;28;20492;-85
2023/08/18 03:05:10;;;;;;;3.00;1.92;;;;;;;11.79;100.00;93102.69;2104255;28;20492;-85
2023/08/18 03:06:11;;;;;;;2.75;1.85;;;;;;;11.82;100.00;93104.56;2102908;28;20074;-85
2023/08/18 03:07:28;;;;;;;2.08;1.85;;;;;;;11.88;100.00;93101.38;2104083;28;20016;-84
2023/08/18 03:10:26;;;;;;;2.65;1.90;;;;;;;11.90;100.00;93105.13;2103238;28;20028;-84
2023/08/18 03:11:28;;;;;;;1.95;1.85;;;;;;;11.95;100.00;93103.88;2095804;28;20108;-84
2023/08/18 03:12:29;;;;;;;2.58;1.90;;;;;;;11.87;100.00;93097.94;2099869;28;20031;-84
2023/08/18 03:13:31;;;;;;;3.33;1.95;;;;;;;11.80;100.00;93100.75;2104363;28;20067;-84
2023/08/18 03:16:29;;;;;;;3.17;1.77;;;;;;;11.73;100.00;93091.00;2103764;28;20020;-84
2023/08/18 03:17:33;;;;;;;4.57;1.55;;;;;;;11.71;100.00;93096.03;2097751;28;20384;-85
2023/08/18 03:18:34;;;;;;;1.50;1.40;;;;;;;11.71;100.00;93100.63;2105713;28;20119;-86
2023/08/18 03:19:35;;;;;;;5.30;1.77;;;;;;;11.68;100.00;93096.88;2101427;28;20438;-84
2023/08/18 03:20:36;;;;;;;1.58;1.48;;;;;;;11.75;100.00;93101.28;2087582;28;20491;-84
2023/08/18 03:21:37;;;;;;;1.70;1.60;;;;;;;11.71;100.00;93095.28;2095874;28;20043;-85
2023/08/18 03:22:38;;;;;;;3.97;1.50;;;;;;;11.71;100.00;93100.63;2095518;28;20044;-84
2023/08/18 03:23:39;;;;;;;3.13;2.50;;;;;;;11.68;100.00;93104.19;2104434;28;20028;-84
2023/08/18 03:24:40;;;;;;;11.52;2.50;;;;;;;11.63;100.00;93110.75;2103918;28;20028;-84
2023/08/18 03:25:43;;;;;;;3.75;2.03;;;;;;;11.64;100.00;93112.28;2106144;28;20518;-84
2023/08/18 03:26:44;;;;;;;4.38;2.00;;;;;;;11.70;100.00;93115.94;2095860;28;20044;-85
2023/08/18 03:27:45;;;;;;;7.78;1.92;;;;;;;11.73;100.00;93107.06;2103753;28;20024;-84
2023/08/18 03:28:46;;;;;;;19.77;2.25;;;;;;;11.72;100.00;93105.59;2104175;28;20024;-84
2023/08/18 03:29:47;;;;;;;20.45;2.35;;;;;;;11.78;100.00;93111.16;2095804;28;20031;-84
2023/08/18 03:30:48;;;;;;;10.57;2.10;;;;;;;11.81;100.00;93105.72;2094366;28;20021;-84
2023/08/18 03:31:49;;;;;;;26.48;2.58;;;;;;;12.01;100.00;93108.25;2103975;28;20020;-84
2023/08/18 03:32:55;;;;;;;4.97;1.90;;;;;;;12.07;100.00;93116.53;2102190;28;20032;-84
2023/08/18 03:33:56;;;;;;;15.02;2.17;;;;;;;12.23;100.00;93113.78;2083048;28;20033;-85
2023/08/18 03:34:57;;;;;;;34.05;2.30;;;;;;;12.10;100.00;93116.44;2074469;28;20030;-84
2023/08/18 03:36:52;;;;;;;18.98;2.15;;;;;;;12.02;100.00;93100.97;2086672;28;20033;-83
2023/08/18 03:37:54;;;;;;;1.65;1.50;;;;;;;12.04;100.00;93109.34;2100616;28;20372;-84
2023/08/18 03:38:55;;;;;;;2.47;1.80;;;;;;;11.91;100.00;93106.63;2099560;28;20074;-85
2023/08/18 03:39:56;;;;;;;3.05;1.75;;;;;;;11.81;100.00;93102.28;2098301;28;20060;-84
2023/08/18 03:41:06;;;;;;;1.67;1.58;;;;;;;11.65;100.00;93105.75;2094467;28;20024;-85
2023/08/18 03:42:07;;;;;;;2.85;1.60;;;;;;;11.61;100.00;93105.09;2100673;28;20469;-85
2023/08/18 03:43:08;;;;;;;1.52;1.40;;;;;;;11.69;100.00;93098.38;2098671;28;20036;-84
2023/08/18 03:44:13;;;;;;;1.67;1.58;;;;;;;11.74;100.00;93097.88;2090865;28;20068;-85
2023/08/18 03:45:14;;;;;;;1.65;1.55;;;;;;;11.60;100.00;93101.66;2082560;28;20048;-84
2023/08/18 03:46:25;;;;;;;1.45;1.35;;;;;;;11.70;100.00;93096.47;2081704;28;20032;-85
2023/08/18 03:47:26;;;;;;;3.28;1.45;;;;;;;11.69;100.00;93100.31;2091398;28;20074;-84
2023/08/18 03:48:27;;;;;;;1.73;1.30;;;;;;;11.70;100.00;93101.81;2090329;28;20107;-85
2023/08/18 03:49:29;;;;;;;2.65;1.50;;;;;;;11.74;100.00;93095.19;2097816;28;20419;-85
2023/08/18 03:50:40;;;;;;;1.63;1.50;;;;;;;11.66;100.00;93098.47;2097934;28;20033;-84
2023/08/18 03:51:41;;;;;;;3.70;1.60;;;;;;;11.52;100.00;93097.66;2091347;28;20040;-84
2023/08/18 03:52:42;;;;;;;2.03;1.20;;;;;;;11.51;100.00;93100.78;2094750;28;20284;-84
2023/08/18 03:53:44;;;;;;;2.17;1.40;;;;;;;11.46;100.00;93099.38;2096914;28;20077;-85
2023/08/18 03:54:45;;;;;;;2.08;1.50;;;;;;;11.58;100.00;93095.97;2090019;28;20461;-85
2023/08/18 03:55:49;;;;;;;2.38;1.50;;;;;;;11.56;100.00;93100.25;2092782;28;20028;-84
2023/08/18 03:56:50;;;;;;;1.55;1.40;;;;;;;11.42;100.00;93092.59;2098897;28;20089;-85
2023/08/18 03:57:51;;;;;;;1.40;1.30;;;;;;;11.37;100.00;93103.78;2096224;28;20422;-84
2023/08/18 03:58:52;;;;;;;1.75;1.60;;;;;;;11.42;100.00;93109.41;2081747;28;20068;-85
2023/08/18 03:59:55;;;;;;;2.38;1.60;;;;;;;11.41;100.00;93101.78;2090182;28;20126;-85
2023/08/18 04:01:08;;;;;;;2.33;1.60;;;;;;;11.49;100.00;93101.19;2098755;28;20096;-84
2023/08/18 04:02:09;;;;;;;2.05;1.52;;;;;;;11.38;100.00;93100.72;2099888;28;20032;-84
2023/08/18 04:03:10;;;;;;;1.65;1.52;;;;;;;11.48;100.00;93104.28;2090320;28;20049;-84
2023/08/18 04:04:11;;;;;;;1.60;1.50;;;;;;;11.49;100.00;93103.84;2078114;28;20018;-85
2023/08/18 04:05:12;;;;;;;1.63;1.52;;;;;;;11.39;100.00;93104.13;2090647;28;20094;-85
2023/08/18 04:06:13;;;;;;;4.75;1.80;;;;;;;11.41;100.00;93097.19;2095909;28;20055;-84
2023/08/18 04:07:14;;;;;;;3.25;1.85;;;;;;;11.34;100.00;93098.13;2098377;28;20050;-85
2023/08/18 04:08:15;;;;;;;2.08;1.60;;;;;;;11.31;100.00;93104.31;2098303;28;20064;-84
2023/08/18 04:09:17;;;;;;;1.80;1.70;;;;;;;11.25;100.00;93099.88;2096523;28;20039;-85
2023/08/18 04:10:18;;;;;;;3.30;1.85;;;;;;;11.28;100.00;93099.03;2098177;28;20017;-84
2023/08/18 04:11:20;;;;;;;1.70;1.60;;;;;;;11.30;100.00;93104.72;2075806;28;20021;-85
2023/08/18 04:12:21;;;;;;;3.30;1.65;;;;;;;11.27;100.00;93103.63;2094743;28;20461;-84
2023/08/18 04:13:23;;;;;;;1.95;1.65;;;;;;;11.25;100.00;93107.91;2098398;28;20078;-85
2023/08/18 04:14:24;;;;;;;4.40;1.70;;;;;;;11.20;100.00;93103.06;2097642;28;20017;-84
2023/08/18 04:15:25;;;;;;;3.67;2.00;;;;;;;11.28;100.00;93105.16;2097908;28;20048;-84
2023/08/18 04:16:27;;;;;;;2.72;1.67;;;;;;;11.39;100.00;93104.88;2106212;28;20028;-84
2023/08/18 04:17:28;;;;;;;3.15;2.00;;;;;;;11.48;100.00;93099.69;2105836;28;20090;-84
2023/08/18 04:22:05;;;;;;;2.00;1.80;;;;;;;11.46;100.00;93099.38;2103244;28;20032;-85
2023/08/18 04:23:06;;;;;;;3.22;1.88;;;;;;;11.48;100.00;93104.28;2098127;28;20086;-85
2023/08/18 04:24:07;;;;;;;3.03;2.17;;;;;;;11.45;100.00;93107.78;2104322;28;20024;-84
2023/08/18 04:25:08;;;;;;;7.20;2.30;;;;;;;11.41;100.00;93102.53;2099896;28;20116;-84
2023/08/18 04:26:12;;;;;;;10.93;2.72;;;;;;;11.46;100.00;93103.97;2094574;28;20024;-84
2023/08/18 04:27:20;;;;;;;2.35;2.17;;;;;;;11.32;100.00;93105.06;2106489;28;20513;-84
2023/08/18 04:30:18;;;;;;;1.80;1.70;;;;;;;11.43;100.00;93099.44;2098090;28;20029;-84
2023/08/18 04:31:20;;;;;;;2.33;1.63;;;;;;;11.25;100.00;93100.63;2093590;28;20417;-85
2023/08/18 04:32:21;;;;;;;2.17;2.08;;;;;;;11.29;100.00;93105.91;2089751;28;20051;-84
2023/08/18 04:33:22;;;;;;;3.78;1.85;;;;;;;11.25;100.00;93099.88;2096844;28;20111;-84
2023/08/18 04:34:23;;;;;;;2.90;1.95;;;;;;;11.32;100.00;93108.47;2098248;28;20028;-85
2023/08/18 04:35:24;;;;;;;4.93;2.30;;;;;;;11.20;100.00;93103.81;2097951;28;20060;-85
2023/08/18 04:36:24;;;;;;;3.15;2.00;;;;;;;11.21;100.00;93109.94;2081057;28;20025;-85
2023/08/18 04:39:37;;;;;;;3.25;2.38;;;;;;;11.32;100.00;93105.81;2100549;28;20021;-84
2023/08/18 04:40:59;;;;;;;3.63;2.17;;;;;;;11.30;100.00;93107.41;2106247;28;20111;-84
2023/08/18 04:42:03;;;;;;;3.05;2.58;;;;;;;11.21;100.00;93109.94;2094999;28;20020;-85
2023/08/18 04:43:06;;;;;;;4.55;2.40;;;;;;;11.27;100.00;93110.91;2097638;28;20500;-85
2023/08/18 04:44:08;;;;;;;2.78;2.20;;;;;;;11.24;100.00;93106.44;2095250;28;20455;-85
2023/08/18 04:45:09;;;;;;;3.13;1.95;;;;;;;11.28;100.00;93104.38;2080970;28;20032;-84
2023/08/18 04:48:09;;;;;;;2.70;1.73;;;;;;;11.27;100.00;93117.00;2097200;28;20606;-84
2023/08/18 04:49:10;;;;;;;1.83;1.73;;;;;;;11.16;100.00;93113.13;2097625;28;20055;-84
2023/08/18 04:50:11;;;;;;;1.83;1.73;;;;;;;11.28;100.00;93117.75;2091727;28;20023;-85
2023/08/18 04:51:13;;;;;;;1.85;1.65;;;;;;;11.32;100.00;93116.50;2097449;28;20028;-84
2023/08/18 04:52:15;;;;;;;2.22;2.03;;;;;;;11.34;100.00;93113.44;2097900;28;20098;-84
2023/08/18 04:53:17;;;;;;;3.92;2.00;;;;;;;11.36;100.00;93119.09;2096141;28;20523;-84
2023/08/18 04:54:32;;;;;;;1.90;1.80;;;;;;;11.29;100.00;93116.63;2096309;28;20078;-84
2023/08/18 04:55:33;;;;;;;1.83;1.73;;;;;;;11.31;100.00;93112.34;2091331;28;20102;-84
2023/08/18 04:56:36;;;;;;;3.10;1.80;;;;;;;11.37;100.00;93123.31;2097564;28;20024;-84
2023/08/18 04:57:37;;;;;;;3.85;1.80;;;;;;;11.38;100.00;93116.78;2090726;28;20056;-84
2023/08/18 04:58:38;;;;;;;1.55;1.45;;;;;;;11.38;100.00;93110.66;2085316;28;20465;-84
2023/08/18 04:59:39;;;;;;;2.38;1.92;;;;;;;11.37;100.00;93117.94;2094995;28;20045;-85
2023/08/18 05:00:46;;;;;;;3.13;1.80;;;;;;;11.41;100.00;93118.59;2089923;28;20470;-84
2023/08/18 05:01:47;;;;;;;2.92;1.98;;;;;;;11.36;100.00;93121.78;2090380;28;20025;-84
2023/08/18 05:02:48;;;;;;;1.63;1.52;;;;;;;11.45;100.00;93121.94;2101419;28;20349;-85
2023/08/18 05:03:49;;;;;;;6.03;1.80;;;;;;;11.46;100.00;93123.44;2106289;28;20389;-84
2023/08/18 05:04:50;;;;;;;1.88;1.77;;;;;;;11.48;100.00;93118.41;2102143;28;20390;-86
2023/08/18 05:06:08;;;;;;;3.50;1.80;;;;;;;11.46;100.00;93122.69;2097704;28;20036;-84
2023/08/18 05:07:09;;;;;;;1.60;1.50;;;;;;;11.38;100.00;93119.44;2094375;28;20037;-85
2023/08/18 05:08:10;;;;;;;1.83;1.70;;;;;;;11.47;100.00;93119.59;2089231;28;20384;-85
2023/08/18 05:09:11;;;;;;;6.40;1.67;;;;;;;11.52;100.00;93129.03;2097820;28;20464;-85
2023/08/18 05:10:13;;;;;;;4.38;2.20;;;;;;;11.50;100.00;93120.66;2096819;28;20102;-85
2023/08/18 05:11:14;;;;;;;2.92;1.40;;;;;;;11.51;100.00;93124.88;2097498;28;20074;-84
2023/08/18 05:12:15;;;;;;;2.67;1.55;;;;;;;11.54;100.00;93119.41;2106036;28;20103;-85
2023/08/18 05:13:18;;;;;;;1.42;1.33;;;;;;;11.49;100.00;93119.91;2097332;28;20027;-84
2023/08/18 05:14:19;;;;;;;1.42;1.33;;;;;;;11.50;100.00;93121.44;2097643;28;20480;-84
2023/08/18 05:15:22;;;;;;;2.47;1.30;;;;;;;11.60;100.00;93122.34;2097692;28;20024;-84
2023/08/18 05:16:23;;;;;;;1.80;1.70;;;;;;;11.58;100.00;93117.38;2105584;28;20028;-85
2023/08/18 05:17:24;;;;;;;3.60;1.80;;;;;;;11.60;100.00;93123.09;2089499;28;20096;-84
2023/08/18 05:18:25;;;;;;;2.63;1.58;;;;;;;11.62;100.00;93116.56;2083279;28;20482;-84
2023/08/18 05:19:27;;;;;;;3.58;1.50;;;;;;;11.70;100.00;93120.56;2089111;28;20044;-84
2023/08/18 05:20:28;;;;;;;2.42;1.58;;;;;;;11.50;100.00;93118.75;2089807;28;20544;-84
2023/08/18 05:21:29;;;;;;;2.20;1.50;;;;;;;11.68;100.00;93120.25;2089901;28;20052;-85
2023/08/18 05:22:30;;;;;;;2.13;1.55;;;;;;;11.72;100.00;93121.66;2097363;28;20120;-84